sensor_id;sensor_type;location;lat;lon;timestamp;P1;durP1;ratioP1;P2;durP2;ratioP2
33279;SDS011;20403;43.114;12.434;2022-08-03T00:01:32;5.10;;;2.00;;
33279;SDS011;20403;43.114;12.434;2022-08-03T00:03:58;3.42;;;2.00;;
33279;SDS011;20403;43.114;12.434;2022-08-03T00:06:24;6.80;;;2.20;;
33279;SDS011;20403;43.114;12.434;2022-08-03T00:08:49;4.28;;;2.10;;
33279;SDS011;20403;43.114;12.434;2022-08-03T00:11:15;3.15;;;2.03;;
33279;SDS011;20403;43.114;12.434;2022-08-03T00:13:40;9.88;;;2.50;;
33279;SDS011;20403;43.114;12.434;2022-08-03T00:16:05;2.42;;;1.80;;
33279;SDS011;20403;43.114;12.434;2022-08-03T00:18:31;5.72;;;1.98;;
33279;SDS011;20403;43.114;12.434;2022-08-03T00:20:56;5.68;;;2.00;;
33279;SDS011;20403;43.114;12.434;2022-08-03T00:23:22;7.95;;;2.13;;
33279;SDS011;20403;43.114;12.434;2022-08-03T00:25:47;4.18;;;2.22;;
33279;SDS011;20403;43.114;12.434;2022-08-03T00:28:13;3.28;;;2.30;;
33279;SDS011;20403;43.114;12.434;2022-08-03T00:30:38;4.28;;;2.10;;
33279;SDS011;20403;43.114;12.434;2022-08-03T00:33:03;6.30;;;2.40;;
33279;SDS011;20403;43.114;12.434;2022-08-03T00:35:29;4.40;;;2.40;;
33279;SDS011;20403;43.114;12.434;2022-08-03T00:37:55;2.80;;;2.03;;
33279;SDS011;20403;43.114;12.434;2022-08-03T00:40:20;4.47;;;2.08;;
33279;SDS011;20403;43.114;12.434;2022-08-03T00:47:43;3.30;;;2.10;;
33279;SDS011;20403;43.114;12.434;2022-08-03T00:50:09;4.05;;;2.28;;
33279;SDS011;20403;43.114;12.434;2022-08-03T00:52:34;3.90;;;2.00;;
33279;SDS011;20403;43.114;12.434;2022-08-03T00:55:00;5.10;;;2.22;;
33279;SDS011;20403;43.114;12.434;2022-08-03T00:57:27;2.00;;;1.80;;
33279;SDS011;20403;43.114;12.434;2022-08-03T00:59:55;4.65;;;2.17;;
33279;SDS011;20403;43.114;12.434;2022-08-03T01:02:21;2.65;;;1.98;;
33279;SDS011;20403;43.114;12.434;2022-08-03T01:04:46;3.63;;;1.95;;
33279;SDS011;20403;43.114;12.434;2022-08-03T01:07:16;7.78;;;2.42;;
33279;SDS011;20403;43.114;12.434;2022-08-03T01:10:05;3.17;;;2.30;;
33279;SDS011;20403;43.114;12.434;2022-08-03T01:12:54;4.35;;;2.10;;
33279;SDS011;20403;43.114;12.434;2022-08-03T01:15:33;6.47;;;2.45;;
33279;SDS011;20403;43.114;12.434;2022-08-03T01:20:31;4.28;;;2.20;;
33279;SDS011;20403;43.114;12.434;2022-08-03T01:23:05;3.45;;;1.92;;
33279;SDS011;20403;43.114;12.434;2022-08-03T01:31:18;4.72;;;2.45;;
33279;SDS011;20403;43.114;12.434;2022-08-03T01:33:49;4.43;;;2.25;;
33279;SDS011;20403;43.114;12.434;2022-08-03T01:36:27;2.78;;;2.20;;
33279;SDS011;20403;43.114;12.434;2022-08-03T01:41:28;7.82;;;2.28;;
33279;SDS011;20403;43.114;12.434;2022-08-03T01:43:57;4.53;;;2.13;;
33279;SDS011;20403;43.114;12.434;2022-08-03T01:46:25;2.42;;;2.22;;
33279;SDS011;20403;43.114;12.434;2022-08-03T01:48:52;5.35;;;2.47;;
33279;SDS011;20403;43.114;12.434;2022-08-03T01:51:19;7.55;;;2.83;;
33279;SDS011;20403;43.114;12.434;2022-08-03T01:53:47;8.80;;;2.17;;
33279;SDS011;20403;43.114;12.434;2022-08-03T01:56:22;4.45;;;2.28;;
33279;SDS011;20403;43.114;12.434;2022-08-03T01:58:50;6.60;;;2.35;;
33279;SDS011;20403;43.114;12.434;2022-08-03T02:01:17;4.03;;;2.33;;
33279;SDS011;20403;43.114;12.434;2022-08-03T02:03:45;5.63;;;2.05;;
33279;SDS011;20403;43.114;12.434;2022-08-03T02:06:13;5.70;;;2.20;;
33279;SDS011;20403;43.114;12.434;2022-08-03T02:08:42;7.95;;;2.33;;
33279;SDS011;20403;43.114;12.434;2022-08-03T02:11:09;8.90;;;2.28;;
33279;SDS011;20403;43.114;12.434;2022-08-03T02:13:35;7.88;;;2.00;;
33279;SDS011;20403;43.114;12.434;2022-08-03T02:16:02;5.22;;;2.55;;
33279;SDS011;20403;43.114;12.434;2022-08-03T02:18:29;5.25;;;2.17;;
33279;SDS011;20403;43.114;12.434;2022-08-03T02:20:57;6.95;;;1.98;;
33279;SDS011;20403;43.114;12.434;2022-08-03T02:23:25;9.07;;;2.60;;
33279;SDS011;20403;43.114;12.434;2022-08-03T02:25:52;5.95;;;2.50;;
33279;SDS011;20403;43.114;12.434;2022-08-03T02:28:28;4.40;;;2.40;;
33279;SDS011;20403;43.114;12.434;2022-08-03T02:30:58;9.85;;;2.72;;
33279;SDS011;20403;43.114;12.434;2022-08-03T02:33:38;11.53;;;2.57;;
33279;SDS011;20403;43.114;12.434;2022-08-03T02:36:07;20.60;;;2.80;;
33279;SDS011;20403;43.114;12.434;2022-08-03T02:38:35;15.85;;;3.03;;
33279;SDS011;20403;43.114;12.434;2022-08-03T02:41:06;15.07;;;2.67;;
33279;SDS011;20403;43.114;12.434;2022-08-03T02:43:37;12.38;;;2.60;;
33279;SDS011;20403;43.114;12.434;2022-08-03T02:46:04;10.52;;;3.13;;
33279;SDS011;20403;43.114;12.434;2022-08-03T02:48:33;18.60;;;3.30;;
33279;SDS011;20403;43.114;12.434;2022-08-03T02:51:02;12.80;;;3.22;;
33279;SDS011;20403;43.114;12.434;2022-08-03T02:53:28;5.30;;;2.60;;
33279;SDS011;20403;43.114;12.434;2022-08-03T02:55:55;5.00;;;2.65;;
33279;SDS011;20403;43.114;12.434;2022-08-03T02:58:23;12.00;;;2.83;;
33279;SDS011;20403;43.114;12.434;2022-08-03T03:00:50;9.68;;;2.95;;
33279;SDS011;20403;43.114;12.434;2022-08-03T03:03:17;14.32;;;2.58;;
33279;SDS011;20403;43.114;12.434;2022-08-03T03:05:44;13.95;;;2.65;;
33279;SDS011;20403;43.114;12.434;2022-08-03T03:08:14;6.72;;;2.55;;
33279;SDS011;20403;43.114;12.434;2022-08-03T03:10:42;14.25;;;3.35;;
33279;SDS011;20403;43.114;12.434;2022-08-03T03:13:08;8.90;;;2.83;;
33279;SDS011;20403;43.114;12.434;2022-08-03T03:15:35;4.93;;;2.17;;
33279;SDS011;20403;43.114;12.434;2022-08-03T03:18:03;4.72;;;2.55;;
33279;SDS011;20403;43.114;12.434;2022-08-03T03:20:31;10.18;;;2.83;;
33279;SDS011;20403;43.114;12.434;2022-08-03T03:23:00;10.20;;;2.20;;
33279;SDS011;20403;43.114;12.434;2022-08-03T03:25:29;12.50;;;2.97;;
33279;SDS011;20403;43.114;12.434;2022-08-03T03:27:56;9.57;;;2.60;;
33279;SDS011;20403;43.114;12.434;2022-08-03T03:30:23;5.75;;;2.40;;
33279;SDS011;20403;43.114;12.434;2022-08-03T03:32:50;4.50;;;2.65;;
33279;SDS011;20403;43.114;12.434;2022-08-03T03:35:15;5.72;;;2.50;;
33279;SDS011;20403;43.114;12.434;2022-08-03T03:37:41;4.22;;;2.25;;
33279;SDS011;20403;43.114;12.434;2022-08-03T03:40:07;6.03;;;2.42;;
33279;SDS011;20403;43.114;12.434;2022-08-03T03:42:33;4.65;;;2.50;;
33279;SDS011;20403;43.114;12.434;2022-08-03T03:45:01;5.55;;;2.80;;
33279;SDS011;20403;43.114;12.434;2022-08-03T03:47:32;4.95;;;2.50;;
33279;SDS011;20403;43.114;12.434;2022-08-03T03:49:58;3.60;;;2.50;;
33279;SDS011;20403;43.114;12.434;2022-08-03T03:52:25;6.32;;;2.90;;
33279;SDS011;20403;43.114;12.434;2022-08-03T03:54:50;5.13;;;2.63;;
33279;SDS011;20403;43.114;12.434;2022-08-03T03:57:16;5.47;;;2.53;;
33279;SDS011;20403;43.114;12.434;2022-08-03T03:59:41;4.15;;;2.40;;
33279;SDS011;20403;43.114;12.434;2022-08-03T04:02:08;7.75;;;2.45;;
33279;SDS011;20403;43.114;12.434;2022-08-03T04:04:35;6.93;;;2.47;;
33279;SDS011;20403;43.114;12.434;2022-08-03T04:07:19;3.00;;;2.40;;
33279;SDS011;20403;43.114;12.434;2022-08-03T04:10:09;6.72;;;2.75;;
33279;SDS011;20403;43.114;12.434;2022-08-03T04:13:00;7.60;;;2.70;;
33279;SDS011;20403;43.114;12.434;2022-08-03T04:15:28;5.18;;;2.10;;
33279;SDS011;20403;43.114;12.434;2022-08-03T04:17:57;6.40;;;2.97;;
33279;SDS011;20403;43.114;12.434;2022-08-03T04:20:25;6.22;;;2.38;;
33279;SDS011;20403;43.114;12.434;2022-08-03T04:22:53;4.72;;;2.90;;
33279;SDS011;20403;43.114;12.434;2022-08-03T04:25:32;17.60;;;4.35;;
33279;SDS011;20403;43.114;12.434;2022-08-03T04:28:02;8.70;;;2.72;;
33279;SDS011;20403;43.114;12.434;2022-08-03T04:30:29;9.43;;;2.60;;
33279;SDS011;20403;43.114;12.434;2022-08-03T04:32:57;5.78;;;2.40;;
33279;SDS011;20403;43.114;12.434;2022-08-03T04:35:23;3.30;;;2.65;;
33279;SDS011;20403;43.114;12.434;2022-08-03T04:37:53;15.32;;;3.55;;
33279;SDS011;20403;43.114;12.434;2022-08-03T04:40:29;9.43;;;2.95;;
33279;SDS011;20403;43.114;12.434;2022-08-03T04:42:57;4.47;;;2.80;;
33279;SDS011;20403;43.114;12.434;2022-08-03T04:45:24;4.50;;;2.33;;
33279;SDS011;20403;43.114;12.434;2022-08-03T04:47:51;32.03;;;5.53;;
33279;SDS011;20403;43.114;12.434;2022-08-03T04:50:18;7.55;;;3.30;;
33279;SDS011;20403;43.114;12.434;2022-08-03T04:52:44;8.70;;;3.00;;
33279;SDS011;20403;43.114;12.434;2022-08-03T04:55:09;24.05;;;3.40;;
33279;SDS011;20403;43.114;12.434;2022-08-03T04:57:35;5.90;;;2.42;;
33279;SDS011;20403;43.114;12.434;2022-08-03T05:00:00;8.23;;;2.80;;
33279;SDS011;20403;43.114;12.434;2022-08-03T05:02:25;9.45;;;2.80;;
33279;SDS011;20403;43.114;12.434;2022-08-03T05:04:51;5.50;;;2.75;;
33279;SDS011;20403;43.114;12.434;2022-08-03T05:07:17;3.88;;;2.40;;
33279;SDS011;20403;43.114;12.434;2022-08-03T05:09:43;6.20;;;2.42;;
33279;SDS011;20403;43.114;12.434;2022-08-03T05:12:09;8.00;;;2.83;;
33279;SDS011;20403;43.114;12.434;2022-08-03T05:14:35;10.65;;;2.78;;
33279;SDS011;20403;43.114;12.434;2022-08-03T05:17:02;9.25;;;3.03;;
33279;SDS011;20403;43.114;12.434;2022-08-03T05:19:31;6.32;;;2.67;;
33279;SDS011;20403;43.114;12.434;2022-08-03T05:21:57;8.57;;;3.00;;
33279;SDS011;20403;43.114;12.434;2022-08-03T05:24:23;6.93;;;2.88;;
33279;SDS011;20403;43.114;12.434;2022-08-03T05:26:48;11.88;;;3.00;;
33279;SDS011;20403;43.114;12.434;2022-08-03T05:29:14;4.82;;;2.50;;
33279;SDS011;20403;43.114;12.434;2022-08-03T05:31:39;8.88;;;2.90;;
33279;SDS011;20403;43.114;12.434;2022-08-03T05:34:04;4.63;;;2.50;;
33279;SDS011;20403;43.114;12.434;2022-08-03T05:36:30;6.22;;;2.80;;
33279;SDS011;20403;43.114;12.434;2022-08-03T05:38:55;5.47;;;2.40;;
33279;SDS011;20403;43.114;12.434;2022-08-03T05:41:21;11.48;;;3.28;;
33279;SDS011;20403;43.114;12.434;2022-08-03T05:43:46;6.55;;;3.20;;
33279;SDS011;20403;43.114;12.434;2022-08-03T05:46:12;10.48;;;2.97;;
33279;SDS011;20403;43.114;12.434;2022-08-03T05:48:37;6.53;;;2.70;;
33279;SDS011;20403;43.114;12.434;2022-08-03T05:51:03;10.10;;;3.35;;
33279;SDS011;20403;43.114;12.434;2022-08-03T05:53:33;8.48;;;2.90;;
33279;SDS011;20403;43.114;12.434;2022-08-03T05:55:59;9.85;;;2.90;;
33279;SDS011;20403;43.114;12.434;2022-08-03T05:58:24;12.57;;;3.53;;
33279;SDS011;20403;43.114;12.434;2022-08-03T06:00:49;7.00;;;2.97;;
33279;SDS011;20403;43.114;12.434;2022-08-03T06:03:15;19.55;;;3.50;;
33279;SDS011;20403;43.114;12.434;2022-08-03T06:05:40;9.77;;;3.08;;
33279;SDS011;20403;43.114;12.434;2022-08-03T06:08:06;8.68;;;2.70;;
33279;SDS011;20403;43.114;12.434;2022-08-03T06:10:31;8.43;;;2.55;;
33279;SDS011;20403;43.114;12.434;2022-08-03T06:12:57;10.38;;;2.53;;
33279;SDS011;20403;43.114;12.434;2022-08-03T06:15:22;13.10;;;2.67;;
33279;SDS011;20403;43.114;12.434;2022-08-03T06:17:48;10.30;;;2.53;;
33279;SDS011;20403;43.114;12.434;2022-08-03T06:20:18;12.57;;;2.88;;
33279;SDS011;20403;43.114;12.434;2022-08-03T06:22:45;6.25;;;2.33;;
33279;SDS011;20403;43.114;12.434;2022-08-03T06:25:11;9.52;;;3.00;;
33279;SDS011;20403;43.114;12.434;2022-08-03T06:27:37;12.48;;;2.97;;
33279;SDS011;20403;43.114;12.434;2022-08-03T06:30:04;7.10;;;2.17;;
33279;SDS011;20403;43.114;12.434;2022-08-03T06:32:31;9.75;;;2.00;;
33279;SDS011;20403;43.114;12.434;2022-08-03T06:34:57;9.52;;;2.83;;
33279;SDS011;20403;43.114;12.434;2022-08-03T06:37:23;16.35;;;2.35;;
33279;SDS011;20403;43.114;12.434;2022-08-03T06:39:52;4.45;;;2.30;;
33279;SDS011;20403;43.114;12.434;2022-08-03T06:42:18;4.85;;;2.20;;
33279;SDS011;20403;43.114;12.434;2022-08-03T06:44:54;7.35;;;2.30;;
33279;SDS011;20403;43.114;12.434;2022-08-03T06:47:19;8.68;;;2.00;;
33279;SDS011;20403;43.114;12.434;2022-08-03T06:49:44;10.45;;;2.20;;
33279;SDS011;20403;43.114;12.434;2022-08-03T06:52:10;4.97;;;1.83;;
33279;SDS011;20403;43.114;12.434;2022-08-03T06:54:35;22.70;;;2.67;;
33279;SDS011;20403;43.114;12.434;2022-08-03T06:57:01;8.30;;;1.77;;
33279;SDS011;20403;43.114;12.434;2022-08-03T06:59:26;1.67;;;1.30;;
33279;SDS011;20403;43.114;12.434;2022-08-03T07:01:51;6.97;;;1.35;;
33279;SDS011;20403;43.114;12.434;2022-08-03T07:04:17;4.65;;;1.30;;
33279;SDS011;20403;43.114;12.434;2022-08-03T07:06:42;5.95;;;1.65;;
33279;SDS011;20403;43.114;12.434;2022-08-03T07:09:07;5.85;;;1.60;;
33279;SDS011;20403;43.114;12.434;2022-08-03T07:11:33;5.95;;;1.67;;
33279;SDS011;20403;43.114;12.434;2022-08-03T07:13:58;2.65;;;1.10;;
33279;SDS011;20403;43.114;12.434;2022-08-03T07:16:24;3.58;;;1.67;;
33279;SDS011;20403;43.114;12.434;2022-08-03T07:18:49;31.95;;;5.72;;
33279;SDS011;20403;43.114;12.434;2022-08-03T07:21:14;4.07;;;1.30;;
33279;SDS011;20403;43.114;12.434;2022-08-03T07:23:41;3.17;;;1.20;;
33279;SDS011;20403;43.114;12.434;2022-08-03T07:26:06;6.72;;;1.60;;
33279;SDS011;20403;43.114;12.434;2022-08-03T07:28:31;6.30;;;1.25;;
33279;SDS011;20403;43.114;12.434;2022-08-03T07:30:57;10.50;;;2.75;;
33279;SDS011;20403;43.114;12.434;2022-08-03T07:33:23;11.35;;;1.55;;
33279;SDS011;20403;43.114;12.434;2022-08-03T07:35:49;3.38;;;1.20;;
33279;SDS011;20403;43.114;12.434;2022-08-03T07:38:14;4.50;;;1.30;;
33279;SDS011;20403;43.114;12.434;2022-08-03T07:40:40;5.57;;;1.17;;
33279;SDS011;20403;43.114;12.434;2022-08-03T07:43:05;3.20;;;1.45;;
33279;SDS011;20403;43.114;12.434;2022-08-03T07:45:31;4.82;;;1.35;;
33279;SDS011;20403;43.114;12.434;2022-08-03T07:47:56;5.70;;;1.45;;
33279;SDS011;20403;43.114;12.434;2022-08-03T07:50:22;3.42;;;1.10;;
33279;SDS011;20403;43.114;12.434;2022-08-03T07:52:48;3.08;;;1.33;;
33279;SDS011;20403;43.114;12.434;2022-08-03T07:55:17;2.42;;;1.10;;
33279;SDS011;20403;43.114;12.434;2022-08-03T07:57:44;2.30;;;1.30;;
33279;SDS011;20403;43.114;12.434;2022-08-03T08:00:14;7.97;;;1.35;;
33279;SDS011;20403;43.114;12.434;2022-08-03T08:02:42;3.80;;;1.50;;
33279;SDS011;20403;43.114;12.434;2022-08-03T08:05:08;3.45;;;1.27;;
33279;SDS011;20403;43.114;12.434;2022-08-03T08:07:34;7.32;;;1.40;;
33279;SDS011;20403;43.114;12.434;2022-08-03T08:10:02;7.97;;;1.30;;
33279;SDS011;20403;43.114;12.434;2022-08-03T08:12:32;4.40;;;1.10;;
33279;SDS011;20403;43.114;12.434;2022-08-03T08:14:58;3.70;;;1.05;;
33279;SDS011;20403;43.114;12.434;2022-08-03T08:17:23;5.32;;;1.40;;
33279;SDS011;20403;43.114;12.434;2022-08-03T08:19:48;4.78;;;1.38;;
33279;SDS011;20403;43.114;12.434;2022-08-03T08:22:14;5.57;;;1.10;;
33279;SDS011;20403;43.114;12.434;2022-08-03T08:24:39;4.20;;;1.30;;
33279;SDS011;20403;43.114;12.434;2022-08-03T08:27:05;3.90;;;1.10;;
33279;SDS011;20403;43.114;12.434;2022-08-03T08:29:32;4.50;;;1.20;;
33279;SDS011;20403;43.114;12.434;2022-08-03T08:31:58;5.25;;;1.40;;
33279;SDS011;20403;43.114;12.434;2022-08-03T08:34:24;3.22;;;1.23;;
33279;SDS011;20403;43.114;12.434;2022-08-03T08:36:49;4.22;;;0.95;;
33279;SDS011;20403;43.114;12.434;2022-08-03T08:39:15;3.38;;;1.10;;
33279;SDS011;20403;43.114;12.434;2022-08-03T08:41:40;3.00;;;1.33;;
33279;SDS011;20403;43.114;12.434;2022-08-03T08:44:06;5.10;;;1.30;;
33279;SDS011;20403;43.114;12.434;2022-08-03T08:46:34;4.60;;;1.20;;
33279;SDS011;20403;43.114;12.434;2022-08-03T08:49:01;2.08;;;1.48;;
33279;SDS011;20403;43.114;12.434;2022-08-03T08:51:28;2.35;;;1.15;;
33279;SDS011;20403;43.114;12.434;2022-08-03T08:53:56;1.98;;;1.20;;
33279;SDS011;20403;43.114;12.434;2022-08-03T08:56:25;3.80;;;1.35;;
33279;SDS011;20403;43.114;12.434;2022-08-03T08:58:54;1.73;;;1.20;;
33279;SDS011;20403;43.114;12.434;2022-08-03T09:03:48;2.00;;;1.23;;
33279;SDS011;20403;43.114;12.434;2022-08-03T09:06:14;4.43;;;1.10;;
33279;SDS011;20403;43.114;12.434;2022-08-03T09:08:40;1.30;;;0.90;;
33279;SDS011;20403;43.114;12.434;2022-08-03T09:11:05;2.55;;;1.10;;
33279;SDS011;20403;43.114;12.434;2022-08-03T09:13:34;4.43;;;1.10;;
33279;SDS011;20403;43.114;12.434;2022-08-03T09:16:09;2.38;;;1.10;;
33279;SDS011;20403;43.114;12.434;2022-08-03T09:18:39;2.15;;;1.10;;
33279;SDS011;20403;43.114;12.434;2022-08-03T09:21:14;1.92;;;1.25;;
33279;SDS011;20403;43.114;12.434;2022-08-03T09:23:45;1.73;;;0.80;;
33279;SDS011;20403;43.114;12.434;2022-08-03T09:26:23;10.02;;;1.70;;
33279;SDS011;20403;43.114;12.434;2022-08-03T09:28:57;3.40;;;1.30;;
33279;SDS011;20403;43.114;12.434;2022-08-03T09:31:38;1.52;;;1.00;;
33279;SDS011;20403;43.114;12.434;2022-08-03T09:34:06;3.80;;;1.40;;
33279;SDS011;20403;43.114;12.434;2022-08-03T09:39:09;1.75;;;1.00;;
33279;SDS011;20403;43.114;12.434;2022-08-03T09:41:36;1.48;;;0.98;;
33279;SDS011;20403;43.114;12.434;2022-08-03T09:44:05;4.72;;;1.02;;
33279;SDS011;20403;43.114;12.434;2022-08-03T09:46:46;1.75;;;0.93;;
33279;SDS011;20403;43.114;12.434;2022-08-03T09:49:15;4.78;;;1.00;;
33279;SDS011;20403;43.114;12.434;2022-08-03T09:51:41;5.10;;;1.00;;
33279;SDS011;20403;43.114;12.434;2022-08-03T09:54:06;2.30;;;0.90;;
33279;SDS011;20403;43.114;12.434;2022-08-03T09:59:03;1.73;;;0.80;;
33279;SDS011;20403;43.114;12.434;2022-08-03T10:01:32;1.38;;;0.90;;
33279;SDS011;20403;43.114;12.434;2022-08-03T10:04:01;1.95;;;1.02;;
33279;SDS011;20403;43.114;12.434;2022-08-03T10:06:27;3.17;;;0.77;;
33279;SDS011;20403;43.114;12.434;2022-08-03T10:09:05;3.13;;;0.98;;
33279;SDS011;20403;43.114;12.434;2022-08-03T10:11:36;1.40;;;0.95;;
33279;SDS011;20403;43.114;12.434;2022-08-03T10:14:05;4.25;;;1.63;;
33279;SDS011;20403;43.114;12.434;2022-08-03T10:16:33;2.72;;;0.98;;
33279;SDS011;20403;43.114;12.434;2022-08-03T10:19:01;2.15;;;0.95;;
33279;SDS011;20403;43.114;12.434;2022-08-03T10:21:32;3.50;;;0.98;;
33279;SDS011;20403;43.114;12.434;2022-08-03T10:24:03;2.53;;;1.00;;
33279;SDS011;20403;43.114;12.434;2022-08-03T10:26:35;2.22;;;1.00;;
33279;SDS011;20403;43.114;12.434;2022-08-03T10:29:07;1.25;;;1.05;;
33279;SDS011;20403;43.114;12.434;2022-08-03T10:31:37;3.80;;;1.00;;
33279;SDS011;20403;43.114;12.434;2022-08-03T10:34:05;3.55;;;1.08;;
33279;SDS011;20403;43.114;12.434;2022-08-03T10:36:37;2.42;;;0.82;;
33279;SDS011;20403;43.114;12.434;2022-08-03T10:39:04;1.75;;;0.75;;
33279;SDS011;20403;43.114;12.434;2022-08-03T10:41:31;3.35;;;0.82;;
33279;SDS011;20403;43.114;12.434;2022-08-03T10:44:10;3.88;;;1.25;;
33279;SDS011;20403;43.114;12.434;2022-08-03T10:46:42;2.40;;;0.90;;
33279;SDS011;20403;43.114;12.434;2022-08-03T10:49:12;4.93;;;0.90;;
33279;SDS011;20403;43.114;12.434;2022-08-03T10:51:39;2.17;;;0.88;;
33279;SDS011;20403;43.114;12.434;2022-08-03T10:54:06;6.82;;;1.70;;
33279;SDS011;20403;43.114;12.434;2022-08-03T11:02:19;14.98;;;1.27;;
33279;SDS011;20403;43.114;12.434;2022-08-03T11:04:44;3.45;;;1.00;;
33279;SDS011;20403;43.114;12.434;2022-08-03T11:07:23;2.03;;;0.80;;
33279;SDS011;20403;43.114;12.434;2022-08-03T11:09:53;4.13;;;1.00;;
33279;SDS011;20403;43.114;12.434;2022-08-03T11:14:56;3.20;;;1.00;;
33279;SDS011;20403;43.114;12.434;2022-08-03T11:17:24;1.35;;;0.68;;
33279;SDS011;20403;43.114;12.434;2022-08-03T11:19:51;1.85;;;0.80;;
33279;SDS011;20403;43.114;12.434;2022-08-03T11:22:17;3.40;;;0.60;;
33279;SDS011;20403;43.114;12.434;2022-08-03T11:35:21;2.00;;;0.93;;
33279;SDS011;20403;43.114;12.434;2022-08-03T11:48:35;3.22;;;0.88;;
33279;SDS011;20403;43.114;12.434;2022-08-03T11:51:02;1.08;;;0.63;;
33279;SDS011;20403;43.114;12.434;2022-08-03T11:53:29;3.05;;;0.70;;
33279;SDS011;20403;43.114;12.434;2022-08-03T11:55:57;2.22;;;0.90;;
33279;SDS011;20403;43.114;12.434;2022-08-03T11:58:23;1.92;;;1.13;;
33279;SDS011;20403;43.114;12.434;2022-08-03T12:00:49;3.25;;;0.70;;
33279;SDS011;20403;43.114;12.434;2022-08-03T12:03:16;1.27;;;0.73;;
33279;SDS011;20403;43.114;12.434;2022-08-03T12:05:45;2.22;;;0.90;;
33279;SDS011;20403;43.114;12.434;2022-08-03T12:08:11;2.85;;;1.10;;
33279;SDS011;20403;43.114;12.434;2022-08-03T12:10:39;2.80;;;1.00;;
33279;SDS011;20403;43.114;12.434;2022-08-03T12:13:05;6.13;;;0.98;;
33279;SDS011;20403;43.114;12.434;2022-08-03T12:15:33;0.98;;;0.73;;
33279;SDS011;20403;43.114;12.434;2022-08-03T12:18:03;3.42;;;0.70;;
33279;SDS011;20403;43.114;12.434;2022-08-03T12:20:38;1.70;;;0.70;;
33279;SDS011;20403;43.114;12.434;2022-08-03T12:23:05;10.50;;;1.92;;
33279;SDS011;20403;43.114;12.434;2022-08-03T12:25:32;4.13;;;0.90;;
33279;SDS011;20403;43.114;12.434;2022-08-03T12:28:06;3.92;;;1.10;;
33279;SDS011;20403;43.114;12.434;2022-08-03T12:30:33;7.15;;;0.90;;
33279;SDS011;20403;43.114;12.434;2022-08-03T12:32:58;3.72;;;0.73;;
33279;SDS011;20403;43.114;12.434;2022-08-03T12:35:35;3.08;;;0.95;;
33279;SDS011;20403;43.114;12.434;2022-08-03T12:38:00;2.78;;;0.82;;
33279;SDS011;20403;43.114;12.434;2022-08-03T12:40:27;2.35;;;0.80;;
33279;SDS011;20403;43.114;12.434;2022-08-03T12:42:52;2.20;;;0.82;;
33279;SDS011;20403;43.114;12.434;2022-08-03T12:45:25;1.23;;;0.80;;
33279;SDS011;20403;43.114;12.434;2022-08-03T12:47:53;0.70;;;0.65;;
33279;SDS011;20403;43.114;12.434;2022-08-03T12:50:38;3.83;;;0.90;;
33279;SDS011;20403;43.114;12.434;2022-08-03T12:53:06;1.45;;;0.68;;
33279;SDS011;20403;43.114;12.434;2022-08-03T12:55:33;2.15;;;0.70;;
33279;SDS011;20403;43.114;12.434;2022-08-03T12:58:00;2.03;;;0.70;;
33279;SDS011;20403;43.114;12.434;2022-08-03T13:00:29;3.22;;;0.80;;
33279;SDS011;20403;43.114;12.434;2022-08-03T13:03:02;1.58;;;0.80;;
33279;SDS011;20403;43.114;12.434;2022-08-03T13:05:31;2.22;;;1.00;;
33279;SDS011;20403;43.114;12.434;2022-08-03T13:08:07;0.98;;;0.60;;
33279;SDS011;20403;43.114;12.434;2022-08-03T13:10:42;1.48;;;0.80;;
33279;SDS011;20403;43.114;12.434;2022-08-03T13:13:08;3.15;;;0.70;;
33279;SDS011;20403;43.114;12.434;2022-08-03T13:15:34;1.50;;;0.60;;
33279;SDS011;20403;43.114;12.434;2022-08-03T13:18:00;1.58;;;0.70;;
33279;SDS011;20403;43.114;12.434;2022-08-03T13:20:25;1.77;;;0.85;;
33279;SDS011;20403;43.114;12.434;2022-08-03T13:22:50;2.40;;;0.60;;
33279;SDS011;20403;43.114;12.434;2022-08-03T13:25:16;1.48;;;0.68;;
33279;SDS011;20403;43.114;12.434;2022-08-03T13:27:42;1.25;;;0.90;;
33279;SDS011;20403;43.114;12.434;2022-08-03T13:30:08;2.65;;;1.02;;
33279;SDS011;20403;43.114;12.434;2022-08-03T13:32:34;3.22;;;0.80;;
33279;SDS011;20403;43.114;12.434;2022-08-03T13:35:00;2.05;;;0.75;;
33279;SDS011;20403;43.114;12.434;2022-08-03T13:37:26;4.63;;;1.27;;
33279;SDS011;20403;43.114;12.434;2022-08-03T13:39:52;1.33;;;0.80;;
33279;SDS011;20403;43.114;12.434;2022-08-03T13:42:18;1.75;;;0.73;;
33279;SDS011;20403;43.114;12.434;2022-08-03T13:44:44;5.38;;;0.90;;
33279;SDS011;20403;43.114;12.434;2022-08-03T13:47:09;0.90;;;0.60;;
33279;SDS011;20403;43.114;12.434;2022-08-03T13:49:34;3.80;;;0.55;;
33279;SDS011;20403;43.114;12.434;2022-08-03T13:52:00;3.00;;;0.80;;
33279;SDS011;20403;43.114;12.434;2022-08-03T13:54:25;1.83;;;0.90;;
33279;SDS011;20403;43.114;12.434;2022-08-03T13:56:51;1.02;;;0.70;;
33279;SDS011;20403;43.114;12.434;2022-08-03T13:59:20;1.27;;;0.50;;
33279;SDS011;20403;43.114;12.434;2022-08-03T14:01:46;0.75;;;0.68;;
33279;SDS011;20403;43.114;12.434;2022-08-03T14:04:12;3.28;;;0.90;;
33279;SDS011;20403;43.114;12.434;2022-08-03T14:06:38;1.80;;;0.95;;
33279;SDS011;20403;43.114;12.434;2022-08-03T14:09:04;1.90;;;0.80;;
33279;SDS011;20403;43.114;12.434;2022-08-03T14:11:29;0.95;;;0.70;;
33279;SDS011;20403;43.114;12.434;2022-08-03T14:13:55;2.85;;;0.77;;
33279;SDS011;20403;43.114;12.434;2022-08-03T14:16:21;5.28;;;1.00;;
33279;SDS011;20403;43.114;12.434;2022-08-03T14:18:46;3.17;;;0.77;;
33279;SDS011;20403;43.114;12.434;2022-08-03T14:21:12;0.82;;;0.68;;
33279;SDS011;20403;43.114;12.434;2022-08-03T14:23:37;1.45;;;0.80;;
33279;SDS011;20403;43.114;12.434;2022-08-03T14:26:06;1.70;;;0.77;;
33279;SDS011;20403;43.114;12.434;2022-08-03T14:28:32;1.52;;;0.70;;
33279;SDS011;20403;43.114;12.434;2022-08-03T14:30:58;5.95;;;0.80;;
33279;SDS011;20403;43.114;12.434;2022-08-03T14:33:24;1.95;;;0.80;;
33279;SDS011;20403;43.114;12.434;2022-08-03T14:35:49;5.85;;;0.98;;
33279;SDS011;20403;43.114;12.434;2022-08-03T14:38:16;0.70;;;0.70;;
33279;SDS011;20403;43.114;12.434;2022-08-03T14:40:42;1.65;;;0.90;;
33279;SDS011;20403;43.114;12.434;2022-08-03T14:43:08;4.40;;;0.77;;
33279;SDS011;20403;43.114;12.434;2022-08-03T14:45:33;5.85;;;1.23;;
33279;SDS011;20403;43.114;12.434;2022-08-03T14:47:58;2.45;;;1.20;;
33279;SDS011;20403;43.114;12.434;2022-08-03T14:50:24;3.88;;;0.68;;
33279;SDS011;20403;43.114;12.434;2022-08-03T14:52:52;3.65;;;0.73;;
33279;SDS011;20403;43.114;12.434;2022-08-03T14:55:18;1.50;;;0.73;;
33279;SDS011;20403;43.114;12.434;2022-08-03T14:57:43;1.65;;;0.60;;
33279;SDS011;20403;43.114;12.434;2022-08-03T15:00:09;6.80;;;1.08;;
33279;SDS011;20403;43.114;12.434;2022-08-03T15:02:34;2.60;;;0.82;;
33279;SDS011;20403;43.114;12.434;2022-08-03T15:05:00;4.97;;;0.80;;
33279;SDS011;20403;43.114;12.434;2022-08-03T15:07:25;1.25;;;0.90;;
33279;SDS011;20403;43.114;12.434;2022-08-03T15:10:00;3.60;;;1.00;;
33279;SDS011;20403;43.114;12.434;2022-08-03T15:12:25;3.80;;;0.90;;
33279;SDS011;20403;43.114;12.434;2022-08-03T15:14:51;3.92;;;1.00;;
33279;SDS011;20403;43.114;12.434;2022-08-03T15:17:16;1.83;;;0.93;;
33279;SDS011;20403;43.114;12.434;2022-08-03T15:19:41;3.35;;;0.88;;
33279;SDS011;20403;43.114;12.434;2022-08-03T15:22:07;1.42;;;0.88;;
33279;SDS011;20403;43.114;12.434;2022-08-03T15:24:32;1.85;;;0.70;;
33279;SDS011;20403;43.114;12.434;2022-08-03T15:26:58;2.65;;;0.70;;
33279;SDS011;20403;43.114;12.434;2022-08-03T15:29:23;2.00;;;0.75;;